sensor_id;sensor_type;location;lat;lon;timestamp;P1;durP1;ratioP1;P2;durP2;ratioP2
36233;SDS011;43467;50.890;5.982;2024-03-08T00:01:13;28.55;;;19.23;;
36233;SDS011;43467;50.890;5.982;2024-03-08T00:03:41;26.75;;;19.65;;
36233;SDS011;43467;50.890;5.982;2024-03-08T00:06:07;27.50;;;18.45;;
36233;SDS011;43467;50.890;5.982;2024-03-08T00:08:32;32.83;;;21.25;;
36233;SDS011;43467;50.890;5.982;2024-03-08T00:10:58;32.97;;;20.73;;
36233;SDS011;43467;50.890;5.982;2024-03-08T00:13:23;26.80;;;19.38;;
36233;SDS011;43467;50.890;5.982;2024-03-08T00:15:50;28.42;;;18.35;;
36233;SDS011;43467;50.890;5.982;2024-03-08T00:18:15;31.52;;;20.52;;
36233;SDS011;43467;50.890;5.982;2024-03-08T00:20:41;25.30;;;18.60;;
36233;SDS011;43467;50.890;5.982;2024-03-08T00:23:07;26.40;;;19.45;;
36233;SDS011;43467;50.890;5.982;2024-03-08T00:25:32;29.00;;;19.35;;
36233;SDS011;43467;50.890;5.982;2024-03-08T00:27:59;25.55;;;18.58;;
36233;SDS011;43467;50.890;5.982;2024-03-08T00:30:25;28.48;;;19.27;;
36233;SDS011;43467;50.890;5.982;2024-03-08T00:32:50;26.33;;;18.70;;
36233;SDS011;43467;50.890;5.982;2024-03-08T00:35:16;29.42;;;18.80;;
36233;SDS011;43467;50.890;5.982;2024-03-08T00:37:41;25.23;;;18.58;;
36233;SDS011;43467;50.890;5.982;2024-03-08T00:40:07;33.92;;;20.42;;
36233;SDS011;43467;50.890;5.982;2024-03-08T00:42:34;27.58;;;17.90;;
36233;SDS011;43467;50.890;5.982;2024-03-08T00:44:59;27.85;;;19.38;;
36233;SDS011;43467;50.890;5.982;2024-03-08T00:47:25;29.52;;;19.00;;
36233;SDS011;43467;50.890;5.982;2024-03-08T00:49:51;31.35;;;20.02;;
36233;SDS011;43467;50.890;5.982;2024-03-08T00:52:18;31.73;;;21.02;;
36233;SDS011;43467;50.890;5.982;2024-03-08T00:54:44;29.55;;;20.15;;
36233;SDS011;43467;50.890;5.982;2024-03-08T00:57:10;29.73;;;19.65;;
36233;SDS011;43467;50.890;5.982;2024-03-08T00:59:37;29.50;;;20.08;;
36233;SDS011;43467;50.890;5.982;2024-03-08T01:02:03;32.00;;;19.77;;
36233;SDS011;43467;50.890;5.982;2024-03-08T01:04:28;30.30;;;19.42;;
36233;SDS011;43467;50.890;5.982;2024-03-08T01:06:54;29.65;;;19.55;;
36233;SDS011;43467;50.890;5.982;2024-03-08T01:09:21;29.38;;;20.02;;
36233;SDS011;43467;50.890;5.982;2024-03-08T01:11:47;26.08;;;19.05;;
36233;SDS011;43467;50.890;5.982;2024-03-08T01:14:13;32.75;;;20.08;;
36233;SDS011;43467;50.890;5.982;2024-03-08T01:16:38;29.08;;;19.17;;
36233;SDS011;43467;50.890;5.982;2024-03-08T01:19:03;29.20;;;20.08;;
36233;SDS011;43467;50.890;5.982;2024-03-08T01:21:29;32.85;;;19.75;;
36233;SDS011;43467;50.890;5.982;2024-03-08T01:23:54;31.90;;;19.83;;
36233;SDS011;43467;50.890;5.982;2024-03-08T01:26:19;27.73;;;18.90;;
36233;SDS011;43467;50.890;5.982;2024-03-08T01:28:45;27.98;;;19.35;;
36233;SDS011;43467;50.890;5.982;2024-03-08T01:31:10;30.33;;;19.13;;
36233;SDS011;43467;50.890;5.982;2024-03-08T01:33:36;28.25;;;19.20;;
36233;SDS011;43467;50.890;5.982;2024-03-08T01:36:01;26.88;;;19.20;;
36233;SDS011;43467;50.890;5.982;2024-03-08T01:38:28;26.60;;;18.58;;
36233;SDS011;43467;50.890;5.982;2024-03-08T01:40:53;30.73;;;19.63;;
36233;SDS011;43467;50.890;5.982;2024-03-08T01:43:24;29.20;;;18.88;;
36233;SDS011;43467;50.890;5.982;2024-03-08T01:45:55;26.58;;;18.88;;
36233;SDS011;43467;50.890;5.982;2024-03-08T01:48:23;24.95;;;17.20;;
36233;SDS011;43467;50.890;5.982;2024-03-08T01:50:50;27.30;;;18.65;;
36233;SDS011;43467;50.890;5.982;2024-03-08T01:53:17;27.75;;;19.13;;
36233;SDS011;43467;50.890;5.982;2024-03-08T01:55:43;25.60;;;18.85;;
36233;SDS011;43467;50.890;5.982;2024-03-08T01:58:11;29.13;;;19.42;;
36233;SDS011;43467;50.890;5.982;2024-03-08T02:00:40;26.77;;;17.33;;
36233;SDS011;43467;50.890;5.982;2024-03-08T02:03:08;26.38;;;18.23;;
36233;SDS011;43467;50.890;5.982;2024-03-08T02:05:35;28.52;;;18.02;;
36233;SDS011;43467;50.890;5.982;2024-03-08T02:08:03;27.83;;;18.95;;
36233;SDS011;43467;50.890;5.982;2024-03-08T02:10:32;33.85;;;19.98;;
36233;SDS011;43467;50.890;5.982;2024-03-08T02:12:58;27.13;;;18.83;;
36233;SDS011;43467;50.890;5.982;2024-03-08T02:15:24;30.92;;;19.20;;
36233;SDS011;43467;50.890;5.982;2024-03-08T02:17:51;26.98;;;18.85;;
36233;SDS011;43467;50.890;5.982;2024-03-08T02:20:18;30.25;;;20.58;;
36233;SDS011;43467;50.890;5.982;2024-03-08T02:22:44;31.10;;;19.75;;
36233;SDS011;43467;50.890;5.982;2024-03-08T02:25:10;27.20;;;19.65;;
36233;SDS011;43467;50.890;5.982;2024-03-08T02:27:36;31.15;;;19.45;;
36233;SDS011;43467;50.890;5.982;2024-03-08T02:30:02;33.30;;;19.02;;
36233;SDS011;43467;50.890;5.982;2024-03-08T02:32:28;31.02;;;19.42;;
36233;SDS011;43467;50.890;5.982;2024-03-08T02:34:57;30.23;;;19.58;;
36233;SDS011;43467;50.890;5.982;2024-03-08T02:37:25;30.25;;;19.80;;
36233;SDS011;43467;50.890;5.982;2024-03-08T02:39:50;31.23;;;19.63;;
36233;SDS011;43467;50.890;5.982;2024-03-08T02:42:16;34.63;;;20.90;;
36233;SDS011;43467;50.890;5.982;2024-03-08T02:44:43;28.90;;;19.50;;
36233;SDS011;43467;50.890;5.982;2024-03-08T02:47:12;33.05;;;20.27;;
36233;SDS011;43467;50.890;5.982;2024-03-08T02:49:37;29.15;;;19.13;;
36233;SDS011;43467;50.890;5.982;2024-03-08T02:52:03;33.25;;;21.50;;
36233;SDS011;43467;50.890;5.982;2024-03-08T02:54:30;30.55;;;20.25;;
36233;SDS011;43467;50.890;5.982;2024-03-08T02:56:55;28.80;;;19.40;;
36233;SDS011;43467;50.890;5.982;2024-03-08T02:59:21;31.98;;;19.58;;
36233;SDS011;43467;50.890;5.982;2024-03-08T03:01:46;34.47;;;20.90;;
36233;SDS011;43467;50.890;5.982;2024-03-08T03:04:12;27.67;;;19.17;;
36233;SDS011;43467;50.890;5.982;2024-03-08T03:06:38;31.52;;;19.70;;
36233;SDS011;43467;50.890;5.982;2024-03-08T03:09:03;32.85;;;20.25;;
36233;SDS011;43467;50.890;5.982;2024-03-08T03:11:31;33.88;;;21.40;;
36233;SDS011;43467;50.890;5.982;2024-03-08T03:13:57;28.83;;;20.52;;
36233;SDS011;43467;50.890;5.982;2024-03-08T03:16:22;31.17;;;20.30;;
36233;SDS011;43467;50.890;5.982;2024-03-08T03:18:48;29.58;;;19.25;;
36233;SDS011;43467;50.890;5.982;2024-03-08T03:21:14;34.33;;;20.85;;
36233;SDS011;43467;50.890;5.982;2024-03-08T03:23:40;32.08;;;19.33;;
36233;SDS011;43467;50.890;5.982;2024-03-08T03:26:07;32.17;;;21.00;;
36233;SDS011;43467;50.890;5.982;2024-03-08T03:28:33;31.27;;;20.77;;
36233;SDS011;43467;50.890;5.982;2024-03-08T03:30:58;33.95;;;21.60;;
36233;SDS011;43467;50.890;5.982;2024-03-08T03:33:24;30.70;;;19.77;;
36233;SDS011;43467;50.890;5.982;2024-03-08T03:35:50;33.53;;;20.63;;
36233;SDS011;43467;50.890;5.982;2024-03-08T03:38:17;34.03;;;21.27;;
36233;SDS011;43467;50.890;5.982;2024-03-08T03:40:44;32.67;;;20.33;;
36233;SDS011;43467;50.890;5.982;2024-03-08T03:43:11;29.00;;;19.35;;
36233;SDS011;43467;50.890;5.982;2024-03-08T03:45:36;33.45;;;20.83;;
36233;SDS011;43467;50.890;5.982;2024-03-08T03:48:04;32.13;;;19.80;;
36233;SDS011;43467;50.890;5.982;2024-03-08T03:50:34;28.95;;;20.90;;
36233;SDS011;43467;50.890;5.982;2024-03-08T03:53:00;32.25;;;21.20;;
36233;SDS011;43467;50.890;5.982;2024-03-08T03:55:26;30.90;;;21.10;;
36233;SDS011;43467;50.890;5.982;2024-03-08T03:57:52;32.25;;;21.58;;
36233;SDS011;43467;50.890;5.982;2024-03-08T04:00:18;34.92;;;20.55;;
36233;SDS011;43467;50.890;5.982;2024-03-08T04:02:43;31.90;;;20.67;;
36233;SDS011;43467;50.890;5.982;2024-03-08T04:05:09;31.48;;;20.75;;
36233;SDS011;43467;50.890;5.982;2024-03-08T04:07:36;35.72;;;22.35;;
36233;SDS011;43467;50.890;5.982;2024-03-08T04:10:02;34.67;;;20.48;;
36233;SDS011;43467;50.890;5.982;2024-03-08T04:12:28;39.70;;;22.20;;
36233;SDS011;43467;50.890;5.982;2024-03-08T04:14:55;37.28;;;22.00;;
36233;SDS011;43467;50.890;5.982;2024-03-08T04:17:21;31.52;;;20.77;;
36233;SDS011;43467;50.890;5.982;2024-03-08T04:19:47;34.67;;;20.85;;
36233;SDS011;43467;50.890;5.982;2024-03-08T04:22:13;36.30;;;20.02;;
36233;SDS011;43467;50.890;5.982;2024-03-08T04:24:39;33.85;;;20.77;;
36233;SDS011;43467;50.890;5.982;2024-03-08T04:27:06;33.17;;;21.27;;
36233;SDS011;43467;50.890;5.982;2024-03-08T04:29:31;34.22;;;20.48;;
36233;SDS011;43467;50.890;5.982;2024-03-08T04:31:58;33.88;;;20.38;;
36233;SDS011;43467;50.890;5.982;2024-03-08T04:34:23;31.30;;;20.77;;
36233;SDS011;43467;50.890;5.982;2024-03-08T04:36:49;32.95;;;20.48;;
36233;SDS011;43467;50.890;5.982;2024-03-08T04:39:15;34.40;;;21.80;;
36233;SDS011;43467;50.890;5.982;2024-03-08T04:41:41;35.30;;;21.05;;
36233;SDS011;43467;50.890;5.982;2024-03-08T04:44:08;38.92;;;22.88;;
36233;SDS011;43467;50.890;5.982;2024-03-08T04:46:34;34.72;;;21.90;;
36233;SDS011;43467;50.890;5.982;2024-03-08T04:49:00;38.83;;;22.85;;
36233;SDS011;43467;50.890;5.982;2024-03-08T04:51:26;34.10;;;21.00;;
36233;SDS011;43467;50.890;5.982;2024-03-08T04:53:51;34.47;;;22.00;;
36233;SDS011;43467;50.890;5.982;2024-03-08T04:56:17;35.88;;;22.15;;
36233;SDS011;43467;50.890;5.982;2024-03-08T04:58:44;37.20;;;22.15;;
36233;SDS011;43467;50.890;5.982;2024-03-08T05:01:11;33.42;;;19.73;;
36233;SDS011;43467;50.890;5.982;2024-03-08T05:03:37;36.40;;;21.85;;
36233;SDS011;43467;50.890;5.982;2024-03-08T05:06:03;34.97;;;22.38;;
36233;SDS011;43467;50.890;5.982;2024-03-08T05:08:29;33.65;;;21.65;;
36233;SDS011;43467;50.890;5.982;2024-03-08T05:10:55;38.92;;;21.30;;
36233;SDS011;43467;50.890;5.982;2024-03-08T05:13:21;35.15;;;21.08;;
36233;SDS011;43467;50.890;5.982;2024-03-08T05:15:49;42.17;;;22.38;;
36233;SDS011;43467;50.890;5.982;2024-03-08T05:18:17;35.17;;;21.38;;
36233;SDS011;43467;50.890;5.982;2024-03-08T05:20:43;34.83;;;21.83;;
36233;SDS011;43467;50.890;5.982;2024-03-08T05:23:08;44.47;;;23.05;;
36233;SDS011;43467;50.890;5.982;2024-03-08T05:25:34;33.25;;;21.42;;
36233;SDS011;43467;50.890;5.982;2024-03-08T05:27:59;38.78;;;23.23;;
36233;SDS011;43467;50.890;5.982;2024-03-08T05:30:25;34.65;;;20.73;;
36233;SDS011;43467;50.890;5.982;2024-03-08T05:32:50;33.05;;;20.92;;
36233;SDS011;43467;50.890;5.982;2024-03-08T05:35:16;34.17;;;22.33;;
36233;SDS011;43467;50.890;5.982;2024-03-08T05:37:42;38.00;;;22.70;;
36233;SDS011;43467;50.890;5.982;2024-03-08T05:40:08;37.95;;;22.48;;
36233;SDS011;43467;50.890;5.982;2024-03-08T05:42:36;32.03;;;20.10;;
36233;SDS011;43467;50.890;5.982;2024-03-08T05:45:02;36.78;;;22.23;;
36233;SDS011;43467;50.890;5.982;2024-03-08T05:47:32;31.95;;;20.75;;
36233;SDS011;43467;50.890;5.982;2024-03-08T05:50:01;33.55;;;20.90;;
36233;SDS011;43467;50.890;5.982;2024-03-08T05:52:29;32.65;;;20.85;;
36233;SDS011;43467;50.890;5.982;2024-03-08T05:54:55;37.03;;;23.13;;
36233;SDS011;43467;50.890;5.982;2024-03-08T05:57:20;39.55;;;22.58;;
36233;SDS011;43467;50.890;5.982;2024-03-08T05:59:48;39.20;;;23.25;;
36233;SDS011;43467;50.890;5.982;2024-03-08T06:02:13;35.97;;;20.10;;
36233;SDS011;43467;50.890;5.982;2024-03-08T06:04:44;38.15;;;22.30;;
36233;SDS011;43467;50.890;5.982;2024-03-08T06:07:11;37.47;;;21.60;;
36233;SDS011;43467;50.890;5.982;2024-03-08T06:09:37;40.00;;;22.65;;
36233;SDS011;43467;50.890;5.982;2024-03-08T06:12:03;37.75;;;21.88;;
36233;SDS011;43467;50.890;5.982;2024-03-08T06:14:29;38.15;;;23.38;;
36233;SDS011;43467;50.890;5.982;2024-03-08T06:16:55;37.20;;;21.33;;
36233;SDS011;43467;50.890;5.982;2024-03-08T06:19:20;36.67;;;21.25;;
36233;SDS011;43467;50.890;5.982;2024-03-08T06:21:46;32.83;;;20.90;;
36233;SDS011;43467;50.890;5.982;2024-03-08T06:24:11;37.63;;;22.92;;
36233;SDS011;43467;50.890;5.982;2024-03-08T06:26:37;38.08;;;22.02;;
36233;SDS011;43467;50.890;5.982;2024-03-08T06:29:03;35.28;;;21.95;;
36233;SDS011;43467;50.890;5.982;2024-03-08T06:31:31;40.17;;;23.30;;
36233;SDS011;43467;50.890;5.982;2024-03-08T06:33:57;36.15;;;22.98;;
36233;SDS011;43467;50.890;5.982;2024-03-08T06:36:23;35.92;;;22.35;;
36233;SDS011;43467;50.890;5.982;2024-03-08T06:38:49;39.35;;;22.30;;
36233;SDS011;43467;50.890;5.982;2024-03-08T06:41:14;38.75;;;22.05;;
36233;SDS011;43467;50.890;5.982;2024-03-08T06:43:44;38.25;;;22.20;;
36233;SDS011;43467;50.890;5.982;2024-03-08T06:46:11;37.83;;;23.00;;
36233;SDS011;43467;50.890;5.982;2024-03-08T06:48:39;46.55;;;22.85;;
36233;SDS011;43467;50.890;5.982;2024-03-08T06:51:04;39.20;;;23.08;;
36233;SDS011;43467;50.890;5.982;2024-03-08T06:53:30;35.28;;;22.45;;
36233;SDS011;43467;50.890;5.982;2024-03-08T06:55:56;36.95;;;23.33;;
36233;SDS011;43467;50.890;5.982;2024-03-08T06:58:22;38.92;;;22.55;;
36233;SDS011;43467;50.890;5.982;2024-03-08T07:00:48;39.85;;;22.15;;
36233;SDS011;43467;50.890;5.982;2024-03-08T07:03:17;38.92;;;23.45;;
36233;SDS011;43467;50.890;5.982;2024-03-08T07:05:43;34.95;;;22.00;;
36233;SDS011;43467;50.890;5.982;2024-03-08T07:08:08;34.97;;;22.25;;
36233;SDS011;43467;50.890;5.982;2024-03-08T07:10:34;37.70;;;22.33;;
36233;SDS011;43467;50.890;5.982;2024-03-08T07:13:00;39.13;;;23.55;;
36233;SDS011;43467;50.890;5.982;2024-03-08T07:15:27;46.55;;;23.23;;
36233;SDS011;43467;50.890;5.982;2024-03-08T07:17:53;34.58;;;22.33;;
36233;SDS011;43467;50.890;5.982;2024-03-08T07:20:19;35.15;;;21.67;;
36233;SDS011;43467;50.890;5.982;2024-03-08T07:22:45;41.20;;;23.67;;
36233;SDS011;43467;50.890;5.982;2024-03-08T07:25:18;38.35;;;21.92;;
36233;SDS011;43467;50.890;5.982;2024-03-08T07:27:47;43.17;;;23.00;;
36233;SDS011;43467;50.890;5.982;2024-03-08T07:30:16;34.80;;;21.38;;
36233;SDS011;43467;50.890;5.982;2024-03-08T07:33:00;34.88;;;20.98;;
36233;SDS011;43467;50.890;5.982;2024-03-08T07:35:27;36.67;;;22.25;;
36233;SDS011;43467;50.890;5.982;2024-03-08T07:37:56;37.20;;;22.10;;
36233;SDS011;43467;50.890;5.982;2024-03-08T07:40:21;35.25;;;23.00;;
36233;SDS011;43467;50.890;5.982;2024-03-08T07:42:48;33.90;;;21.77;;
36233;SDS011;43467;50.890;5.982;2024-03-08T07:45:14;36.42;;;21.63;;
36233;SDS011;43467;50.890;5.982;2024-03-08T07:47:41;38.40;;;22.48;;
36233;SDS011;43467;50.890;5.982;2024-03-08T07:50:07;38.20;;;23.17;;
36233;SDS011;43467;50.890;5.982;2024-03-08T07:52:35;36.00;;;22.25;;
36233;SDS011;43467;50.890;5.982;2024-03-08T07:55:01;34.22;;;21.40;;
36233;SDS011;43467;50.890;5.982;2024-03-08T07:57:28;34.35;;;21.27;;
36233;SDS011;43467;50.890;5.982;2024-03-08T07:59:54;38.35;;;21.40;;
36233;SDS011;43467;50.890;5.982;2024-03-08T08:02:20;37.33;;;21.63;;
36233;SDS011;43467;50.890;5.982;2024-03-08T08:04:46;36.28;;;21.42;;
36233;SDS011;43467;50.890;5.982;2024-03-08T08:07:11;42.80;;;23.33;;
36233;SDS011;43467;50.890;5.982;2024-03-08T08:09:37;37.72;;;22.55;;
36233;SDS011;43467;50.890;5.982;2024-03-08T08:12:03;40.65;;;21.95;;
36233;SDS011;43467;50.890;5.982;2024-03-08T08:14:29;35.50;;;22.65;;
36233;SDS011;43467;50.890;5.982;2024-03-08T08:16:55;40.15;;;22.00;;
36233;SDS011;43467;50.890;5.982;2024-03-08T08:19:22;38.15;;;21.95;;
36233;SDS011;43467;50.890;5.982;2024-03-08T08:21:48;40.13;;;22.05;;
36233;SDS011;43467;50.890;5.982;2024-03-08T08:24:13;41.35;;;23.02;;
36233;SDS011;43467;50.890;5.982;2024-03-08T08:26:39;36.60;;;21.98;;
36233;SDS011;43467;50.890;5.982;2024-03-08T08:29:05;39.63;;;23.38;;
36233;SDS011;43467;50.890;5.982;2024-03-08T08:31:34;39.47;;;22.73;;
36233;SDS011;43467;50.890;5.982;2024-03-08T08:34:00;38.25;;;22.08;;
36233;SDS011;43467;50.890;5.982;2024-03-08T08:36:25;32.97;;;21.50;;
36233;SDS011;43467;50.890;5.982;2024-03-08T08:38:51;35.22;;;21.40;;
36233;SDS011;43467;50.890;5.982;2024-03-08T08:41:19;40.25;;;22.88;;
36233;SDS011;43467;50.890;5.982;2024-03-08T08:43:46;35.28;;;21.70;;
36233;SDS011;43467;50.890;5.982;2024-03-08T08:46:12;37.90;;;22.02;;
36233;SDS011;43467;50.890;5.982;2024-03-08T08:48:38;33.15;;;20.27;;
36233;SDS011;43467;50.890;5.982;2024-03-08T08:51:06;36.72;;;22.02;;
36233;SDS011;43467;50.890;5.982;2024-03-08T08:53:37;33.50;;;21.25;;
36233;SDS011;43467;50.890;5.982;2024-03-08T08:56:05;35.83;;;21.73;;
36233;SDS011;43467;50.890;5.982;2024-03-08T08:58:33;31.88;;;21.25;;
36233;SDS011;43467;50.890;5.982;2024-03-08T09:00:58;35.65;;;21.45;;
36233;SDS011;43467;50.890;5.982;2024-03-08T09:03:24;34.72;;;20.85;;
36233;SDS011;43467;50.890;5.982;2024-03-08T09:05:52;34.83;;;21.38;;
36233;SDS011;43467;50.890;5.982;2024-03-08T09:08:17;35.35;;;20.17;;
36233;SDS011;43467;50.890;5.982;2024-03-08T09:10:43;33.17;;;19.58;;
36233;SDS011;43467;50.890;5.982;2024-03-08T09:13:08;36.28;;;21.73;;
36233;SDS011;43467;50.890;5.982;2024-03-08T09:15:35;37.20;;;21.00;;
36233;SDS011;43467;50.890;5.982;2024-03-08T09:18:01;34.20;;;21.17;;
36233;SDS011;43467;50.890;5.982;2024-03-08T09:20:27;35.47;;;21.58;;
36233;SDS011;43467;50.890;5.982;2024-03-08T09:22:53;37.53;;;20.98;;
36233;SDS011;43467;50.890;5.982;2024-03-08T09:25:20;36.17;;;19.33;;
36233;SDS011;43467;50.890;5.982;2024-03-08T09:27:45;32.97;;;20.20;;
36233;SDS011;43467;50.890;5.982;2024-03-08T09:30:11;32.20;;;20.58;;
36233;SDS011;43467;50.890;5.982;2024-03-08T09:32:38;33.38;;;20.15;;
36233;SDS011;43467;50.890;5.982;2024-03-08T09:35:06;37.58;;;21.75;;
36233;SDS011;43467;50.890;5.982;2024-03-08T09:37:32;32.22;;;20.15;;
36233;SDS011;43467;50.890;5.982;2024-03-08T09:40:01;35.97;;;21.40;;
36233;SDS011;43467;50.890;5.982;2024-03-08T09:42:34;36.53;;;20.98;;
36233;SDS011;43467;50.890;5.982;2024-03-08T09:45:04;38.95;;;21.27;;
36233;SDS011;43467;50.890;5.982;2024-03-08T09:47:33;30.77;;;19.42;;
36233;SDS011;43467;50.890;5.982;2024-03-08T09:49:59;31.73;;;20.27;;
36233;SDS011;43467;50.890;5.982;2024-03-08T09:52:26;29.55;;;19.10;;
36233;SDS011;43467;50.890;5.982;2024-03-08T09:54:51;39.30;;;20.13;;
36233;SDS011;43467;50.890;5.982;2024-03-08T09:57:18;34.22;;;20.75;;
36233;SDS011;43467;50.890;5.982;2024-03-08T09:59:43;43.55;;;21.48;;
36233;SDS011;43467;50.890;5.982;2024-03-08T10:02:15;33.03;;;20.20;;
36233;SDS011;43467;50.890;5.982;2024-03-08T10:04:41;29.33;;;19.13;;
36233;SDS011;43467;50.890;5.982;2024-03-08T10:07:07;33.08;;;20.08;;
36233;SDS011;43467;50.890;5.982;2024-03-08T10:09:33;33.85;;;19.35;;
36233;SDS011;43467;50.890;5.982;2024-03-08T10:11:58;32.20;;;19.42;;
36233;SDS011;43467;50.890;5.982;2024-03-08T10:14:24;36.58;;;20.80;;
36233;SDS011;43467;50.890;5.982;2024-03-08T10:16:51;33.50;;;19.83;;
36233;SDS011;43467;50.890;5.982;2024-03-08T10:19:17;32.58;;;20.42;;
36233;SDS011;43467;50.890;5.982;2024-03-08T10:21:49;30.80;;;19.95;;
36233;SDS011;43467;50.890;5.982;2024-03-08T10:24:17;30.67;;;19.43;;
36233;SDS011;43467;50.890;5.982;2024-03-08T10:26:42;34.45;;;21.80;;
36233;SDS011;43467;50.890;5.982;2024-03-08T10:29:09;30.85;;;19.58;;
36233;SDS011;43467;50.890;5.982;2024-03-08T10:31:34;34.08;;;19.83;;
36233;SDS011;43467;50.890;5.982;2024-03-08T10:34:01;34.85;;;20.40;;
36233;SDS011;43467;50.890;5.982;2024-03-08T10:36:27;36.70;;;20.33;;
36233;SDS011;43467;50.890;5.982;2024-03-08T10:38:53;31.70;;;19.30;;
36233;SDS011;43467;50.890;5.982;2024-03-08T10:41:22;33.15;;;19.05;;
36233;SDS011;43467;50.890;5.982;2024-03-08T10:49:08;29.48;;;18.75;;
36233;SDS011;43467;50.890;5.982;2024-03-08T10:54:07;29.02;;;18.15;;
36233;SDS011;43467;50.890;5.982;2024-03-08T10:56:35;29.05;;;18.33;;
36233;SDS011;43467;50.890;5.982;2024-03-08T10:59:01;29.38;;;17.85;;
36233;SDS011;43467;50.890;5.982;2024-03-08T11:01:29;32.40;;;19.27;;
36233;SDS011;43467;50.890;5.982;2024-03-08T11:03:54;33.22;;;18.30;;
36233;SDS011;43467;50.890;5.982;2024-03-08T11:06:31;30.13;;;17.83;;
36233;SDS011;43467;50.890;5.982;2024-03-08T11:09:49;29.65;;;18.58;;
36233;SDS011;43467;50.890;5.982;2024-03-08T11:15:01;33.60;;;18.48;;
36233;SDS011;43467;50.890;5.982;2024-03-08T11:19:59;27.48;;;17.92;;
36233;SDS011;43467;50.890;5.982;2024-03-08T11:22:32;26.10;;;17.60;;
36233;SDS011;43467;50.890;5.982;2024-03-08T11:25:08;25.85;;;17.50;;
36233;SDS011;43467;50.890;5.982;2024-03-08T11:27:37;27.67;;;17.95;;
36233;SDS011;43467;50.890;5.982;2024-03-08T11:30:06;28.48;;;17.25;;
36233;SDS011;43467;50.890;5.982;2024-03-08T11:32:36;28.20;;;17.90;;
36233;SDS011;43467;50.890;5.982;2024-03-08T11:35:06;30.52;;;18.00;;
36233;SDS011;43467;50.890;5.982;2024-03-08T11:37:33;28.77;;;17.27;;
36233;SDS011;43467;50.890;5.982;2024-03-08T11:40:01;26.85;;;17.42;;
36233;SDS011;43467;50.890;5.982;2024-03-08T11:42:29;28.98;;;18.15;;
36233;SDS011;43467;50.890;5.982;2024-03-08T11:44:55;29.08;;;17.45;;
36233;SDS011;43467;50.890;5.982;2024-03-08T11:47:21;26.92;;;17.15;;
36233;SDS011;43467;50.890;5.982;2024-03-08T11:49:47;26.65;;;17.40;;
36233;SDS011;43467;50.890;5.982;2024-03-08T11:52:14;29.33;;;18.95;;
36233;SDS011;43467;50.890;5.982;2024-03-08T11:54:40;25.17;;;17.02;;
36233;SDS011;43467;50.890;5.982;2024-03-08T11:57:07;27.50;;;16.48;;
36233;SDS011;43467;50.890;5.982;2024-03-08T11:59:34;25.30;;;17.10;;
36233;SDS011;43467;50.890;5.982;2024-03-08T12:02:03;27.30;;;17.92;;
36233;SDS011;43467;50.890;5.982;2024-03-08T12:04:30;28.25;;;16.90;;
36233;SDS011;43467;50.890;5.982;2024-03-08T12:06:59;27.60;;;18.08;;
36233;SDS011;43467;50.890;5.982;2024-03-08T12:09:33;24.67;;;16.73;;
36233;SDS011;43467;50.890;5.982;2024-03-08T12:12:01;26.77;;;17.45;;
36233;SDS011;43467;50.890;5.982;2024-03-08T12:14:28;22.67;;;15.65;;
36233;SDS011;43467;50.890;5.982;2024-03-08T12:16:54;27.38;;;18.35;;
36233;SDS011;43467;50.890;5.982;2024-03-08T12:19:19;25.55;;;17.48;;
36233;SDS011;43467;50.890;5.982;2024-03-08T12:21:45;28.17;;;17.20;;
36233;SDS011;43467;50.890;5.982;2024-03-08T12:24:14;25.55;;;16.80;;
36233;SDS011;43467;50.890;5.982;2024-03-08T12:26:44;26.23;;;16.55;;
36233;SDS011;43467;50.890;5.982;2024-03-08T12:29:26;24.10;;;16.10;;
36233;SDS011;43467;50.890;5.982;2024-03-08T12:31:57;29.95;;;16.95;;
36233;SDS011;43467;50.890;5.982;2024-03-08T12:34:26;30.35;;;17.15;;
36233;SDS011;43467;50.890;5.982;2024-03-08T12:36:53;27.38;;;16.52;;
36233;SDS011;43467;50.890;5.982;2024-03-08T12:39:20;28.88;;;16.67;;
36233;SDS011;43467;50.890;5.982;2024-03-08T12:41:51;25.33;;;16.35;;
36233;SDS011;43467;50.890;5.982;2024-03-08T12:44:23;26.05;;;15.85;;
36233;SDS011;43467;50.890;5.982;2024-03-08T12:46:49;24.08;;;16.38;;
36233;SDS011;43467;50.890;5.982;2024-03-08T12:49:16;25.83;;;15.98;;
36233;SDS011;43467;50.890;5.982;2024-03-08T12:51:45;26.02;;;16.77;;
36233;SDS011;43467;50.890;5.982;2024-03-08T12:54:11;26.67;;;16.88;;
36233;SDS011;43467;50.890;5.982;2024-03-08T12:56:37;23.55;;;16.17;;
36233;SDS011;43467;50.890;5.982;2024-03-08T12:59:04;23.00;;;16.02;;
36233;SDS011;43467;50.890;5.982;2024-03-08T13:01:30;22.45;;;15.35;;
36233;SDS011;43467;50.890;5.982;2024-03-08T13:03:59;23.67;;;15.57;;
36233;SDS011;43467;50.890;5.982;2024-03-08T13:06:28;21.58;;;15.90;;
36233;SDS011;43467;50.890;5.982;2024-03-08T13:08:54;22.67;;;15.10;;
36233;SDS011;43467;50.890;5.982;2024-03-08T13:11:20;23.58;;;15.07;;
36233;SDS011;43467;50.890;5.982;2024-03-08T13:13:48;23.38;;;15.35;;
36233;SDS011;43467;50.890;5.982;2024-03-08T13:16:13;22.27;;;14.60;;
36233;SDS011;43467;50.890;5.982;2024-03-08T13:18:43;21.58;;;14.50;;
36233;SDS011;43467;50.890;5.982;2024-03-08T13:21:10;26.65;;;15.10;;
36233;SDS011;43467;50.890;5.982;2024-03-08T13:23:37;27.35;;;16.55;;
36233;SDS011;43467;50.890;5.982;2024-03-08T13:26:08;23.58;;;15.38;;
36233;SDS011;43467;50.890;5.982;2024-03-08T13:28:37;24.00;;;14.98;;
36233;SDS011;43467;50.890;5.982;2024-03-08T13:31:06;23.38;;;15.30;;
36233;SDS011;43467;50.890;5.982;2024-03-08T13:33:32;23.88;;;14.02;;
36233;SDS011;43467;50.890;5.982;2024-03-08T13:36:11;21.67;;;14.55;;
36233;SDS011;43467;50.890;5.982;2024-03-08T13:38:42;23.30;;;14.10;;
36233;SDS011;43467;50.890;5.982;2024-03-08T13:41:12;21.35;;;13.60;;
36233;SDS011;43467;50.890;5.982;2024-03-08T13:43:40;22.20;;;14.38;;
36233;SDS011;43467;50.890;5.982;2024-03-08T13:46:06;22.25;;;15.13;;
36233;SDS011;43467;50.890;5.982;2024-03-08T13:48:32;22.27;;;14.80;;
36233;SDS011;43467;50.890;5.982;2024-03-08T13:50:58;21.98;;;14.88;;
36233;SDS011;43467;50.890;5.982;2024-03-08T13:53:25;24.95;;;15.52;;
36233;SDS011;43467;50.890;5.982;2024-03-08T13:55:51;23.33;;;14.52;;
36233;SDS011;43467;50.890;5.982;2024-03-08T13:58:16;21.98;;;13.43;;
36233;SDS011;43467;50.890;5.982;2024-03-08T14:00:42;21.58;;;13.68;;
36233;SDS011;43467;50.890;5.982;2024-03-08T14:03:09;19.10;;;13.27;;
36233;SDS011;43467;50.890;5.982;2024-03-08T14:05:38;20.95;;;13.40;;
36233;SDS011;43467;50.890;5.982;2024-03-08T14:08:04;21.30;;;12.98;;
36233;SDS011;43467;50.890;5.982;2024-03-08T14:10:33;19.02;;;11.93;;
36233;SDS011;43467;50.890;5.982;2024-03-08T14:13:02;20.38;;;12.63;;
36233;SDS011;43467;50.890;5.982;2024-03-08T14:15:30;18.92;;;11.80;;
36233;SDS011;43467;50.890;5.982;2024-03-08T14:17:56;20.63;;;13.05;;
36233;SDS011;43467;50.890;5.982;2024-03-08T14:20:22;20.27;;;13.35;;
36233;SDS011;43467;50.890;5.982;2024-03-08T14:22:59;20.02;;;12.90;;
36233;SDS011;43467;50.890;5.982;2024-03-08T14:25:24;18.27;;;12.18;;
36233;SDS011;43467;50.890;5.982;2024-03-08T14:27:50;17.48;;;12.63;;
36233;SDS011;43467;50.890;5.982;2024-03-08T14:30:23;18.00;;;11.93;;
36233;SDS011;43467;50.890;5.982;2024-03-08T14:33:03;18.85;;;12.82;;